sensor_id;sensor_type;location;lat;lon;timestamp;pressure;altitude;pressure_sealevel;temperature;humidity
70521;BME280;58442;52.716;23.560;2022-12-13T00:00:46;100025.98;;;0.84;77.96
70521;BME280;58442;52.716;23.560;2022-12-13T00:02:47;100019.83;;;0.84;77.92
70521;BME280;58442;52.716;23.560;2022-12-13T00:04:48;100020.11;;;0.82;77.91
70521;BME280;58442;52.716;23.560;2022-12-13T00:06:50;100027.34;;;0.81;77.93
70521;BME280;58442;52.716;23.560;2022-12-13T00:08:53;100025.77;;;0.80;77.93
70521;BME280;58442;52.716;23.560;2022-12-13T00:10:59;100030.33;;;0.80;77.96
70521;BME280;58442;52.716;23.560;2022-12-13T00:13:00;100027.96;;;0.78;77.95
70521;BME280;58442;52.716;23.560;2022-12-13T00:15:01;100039.44;;;0.79;77.90
70521;BME280;58442;52.716;23.560;2022-12-13T00:17:02;100041.34;;;0.78;77.91
70521;BME280;58442;52.716;23.560;2022-12-13T00:19:04;100040.84;;;0.76;77.89
70521;BME280;58442;52.716;23.560;2022-12-13T00:21:15;100044.30;;;0.77;77.87
70521;BME280;58442;52.716;23.560;2022-12-13T00:23:17;100046.47;;;0.75;77.87
70521;BME280;58442;52.716;23.560;2022-12-13T00:25:18;100044.59;;;0.75;77.85
70521;BME280;58442;52.716;23.560;2022-12-13T00:27:21;100050.23;;;0.74;77.82
70521;BME280;58442;52.716;23.560;2022-12-13T00:29:27;100047.08;;;0.72;77.84
70521;BME280;58442;52.716;23.560;2022-12-13T00:31:29;100048.17;;;0.71;77.79
70521;BME280;58442;52.716;23.560;2022-12-13T00:33:31;100044.19;;;0.68;77.73
70521;BME280;58442;52.716;23.560;2022-12-13T00:35:33;100053.03;;;0.69;77.71
70521;BME280;58442;52.716;23.560;2022-12-13T00:37:43;100055.98;;;0.67;77.78
70521;BME280;58442;52.716;23.560;2022-12-13T00:39:44;100059.45;;;0.68;77.73
70521;BME280;58442;52.716;23.560;2022-12-13T00:41:45;100051.73;;;0.66;77.71
70521;BME280;58442;52.716;23.560;2022-12-13T00:43:47;100056.29;;;0.66;77.71
70521;BME280;58442;52.716;23.560;2022-12-13T00:45:58;100069.16;;;0.64;77.72
70521;BME280;58442;52.716;23.560;2022-12-13T00:47:59;100061.15;;;0.64;77.69
70521;BME280;58442;52.716;23.560;2022-12-13T00:50:00;100067.59;;;0.63;77.67
70521;BME280;58442;52.716;23.560;2022-12-13T00:52:01;100065.98;;;0.62;77.64
70521;BME280;58442;52.716;23.560;2022-12-13T00:54:02;100070.53;;;0.61;77.61
70521;BME280;58442;52.716;23.560;2022-12-13T00:56:03;100066.59;;;0.59;77.54
70521;BME280;58442;52.716;23.560;2022-12-13T00:58:09;100060.24;;;0.54;77.54
70521;BME280;58442;52.716;23.560;2022-12-13T01:00:10;100061.84;;;0.56;77.63
70521;BME280;58442;52.716;23.560;2022-12-13T01:02:12;100065.00;;;0.58;77.57
70521;BME280;58442;52.716;23.560;2022-12-13T01:04:13;100067.68;;;0.58;77.46
70521;BME280;58442;52.716;23.560;2022-12-13T01:06:17;100070.93;;;0.54;77.43
70521;BME280;58442;52.716;23.560;2022-12-13T01:08:22;100059.45;;;0.54;77.45
70521;BME280;58442;52.716;23.560;2022-12-13T01:10:23;100067.77;;;0.52;77.44
70521;BME280;58442;52.716;23.560;2022-12-13T01:12:24;100074.52;;;0.50;77.44
70521;BME280;58442;52.716;23.560;2022-12-13T01:14:26;100073.99;;;0.48;77.46
70521;BME280;58442;52.716;23.560;2022-12-13T01:16:37;100077.76;;;0.47;77.47
70521;BME280;58442;52.716;23.560;2022-12-13T01:18:39;100077.48;;;0.48;77.49
70521;BME280;58442;52.716;23.560;2022-12-13T01:20:41;100083.11;;;0.47;77.42
70521;BME280;58442;52.716;23.560;2022-12-13T01:22:42;100079.95;;;0.45;77.44
70521;BME280;58442;52.716;23.560;2022-12-13T01:24:52;100087.17;;;0.44;77.46
70521;BME280;58442;52.716;23.560;2022-12-13T01:26:54;100087.96;;;0.45;77.40
70521;BME280;58442;52.716;23.560;2022-12-13T01:28:55;100090.94;;;0.43;77.34
70521;BME280;58442;52.716;23.560;2022-12-13T01:31:02;100092.52;;;0.44;77.37
70521;BME280;58442;52.716;23.560;2022-12-13T01:33:07;100089.06;;;0.44;77.33
70521;BME280;58442;52.716;23.560;2022-12-13T01:35:08;100086.69;;;0.42;77.29
70521;BME280;58442;52.716;23.560;2022-12-13T01:37:09;100100.84;;;0.43;77.30
70521;BME280;58442;52.716;23.560;2022-12-13T01:39:12;100098.47;;;0.41;77.25
70521;BME280;58442;52.716;23.560;2022-12-13T01:41:22;100098.73;;;0.40;77.23
70521;BME280;58442;52.716;23.560;2022-12-13T01:45:37;100101.80;;;0.33;77.23
70521;BME280;58442;52.716;23.560;2022-12-13T01:47:46;100099.73;;;0.30;77.26
70521;BME280;58442;52.716;23.560;2022-12-13T01:49:49;100101.60;;;0.30;77.25
70521;BME280;58442;52.716;23.560;2022-12-13T01:51:58;100099.52;;;0.26;77.19
70521;BME280;58442;52.716;23.560;2022-12-13T01:54:03;100094.46;;;0.25;77.18
70521;BME280;58442;52.716;23.560;2022-12-13T01:56:09;100105.75;;;0.22;77.18
70521;BME280;58442;52.716;23.560;2022-12-13T01:58:12;100097.22;;;0.20;77.18
70521;BME280;58442;52.716;23.560;2022-12-13T02:00:15;100106.32;;;0.19;77.22
70521;BME280;58442;52.716;23.560;2022-12-13T02:02:16;100106.63;;;0.17;77.24
70521;BME280;58442;52.716;23.560;2022-12-13T02:06:44;100098.60;;;0.17;77.10
70521;BME280;58442;52.716;23.560;2022-12-13T02:08:44;100117.61;;;0.16;77.07
70521;BME280;58442;52.716;23.560;2022-12-13T02:10:46;100103.77;;;0.14;77.06
70521;BME280;58442;52.716;23.560;2022-12-13T02:12:47;100110.47;;;0.11;77.05
70521;BME280;58442;52.716;23.560;2022-12-13T02:14:50;100100.87;;;0.10;77.04
70521;BME280;58442;52.716;23.560;2022-12-13T02:31:10;100135.92;;;-0.10;76.92
70521;BME280;58442;52.716;23.560;2022-12-13T02:40:02;100143.27;;;-0.21;76.91
70521;BME280;58442;52.716;23.560;2022-12-13T02:44:27;100156.20;;;-0.28;76.96
70521;BME280;58442;52.716;23.560;2022-12-13T02:46:40;100147.98;;;-0.32;76.99
70521;BME280;58442;52.716;23.560;2022-12-13T02:48:44;100152.04;;;-0.34;76.97
70521;BME280;58442;52.716;23.560;2022-12-13T02:50:47;100151.02;;;-0.38;76.94
70521;BME280;58442;52.716;23.560;2022-12-13T02:52:51;100161.20;;;-0.40;76.96
70521;BME280;58442;52.716;23.560;2022-12-13T02:54:53;100163.34;;;-0.42;76.98
70521;BME280;58442;52.716;23.560;2022-12-13T02:56:56;100165.22;;;-0.43;76.97
70521;BME280;58442;52.716;23.560;2022-12-13T02:59:00;100165.52;;;-0.44;76.94
70521;BME280;58442;52.716;23.560;2022-12-13T03:10:16;100174.73;;;-0.56;76.67
70521;BME280;58442;52.716;23.560;2022-12-13T03:17:15;100181.59;;;-0.68;76.49
70521;BME280;58442;52.716;23.560;2022-12-13T03:19:18;100179.48;;;-0.71;76.43
70521;BME280;58442;52.716;23.560;2022-12-13T03:21:19;100183.80;;;-0.75;76.39
70521;BME280;58442;52.716;23.560;2022-12-13T03:23:21;100187.02;;;-0.78;76.38
70521;BME280;58442;52.716;23.560;2022-12-13T03:25:30;100189.48;;;-0.82;76.34
70521;BME280;58442;52.716;23.560;2022-12-13T03:27:31;100191.11;;;-0.86;76.30
70521;BME280;58442;52.716;23.560;2022-12-13T03:29:32;100193.29;;;-0.88;76.20
70521;BME280;58442;52.716;23.560;2022-12-13T03:31:33;100189.59;;;-0.92;76.15
70521;BME280;58442;52.716;23.560;2022-12-13T03:33:45;100193.88;;;-0.96;76.15
70521;BME280;58442;52.716;23.560;2022-12-13T03:35:46;100200.88;;;-1.00;76.09
70521;BME280;58442;52.716;23.560;2022-12-13T03:37:47;100188.68;;;-1.06;76.08
70521;BME280;58442;52.716;23.560;2022-12-13T03:39:49;100194.59;;;-1.09;76.08
70521;BME280;58442;52.716;23.560;2022-12-13T03:42:00;100204.51;;;-1.15;76.01
70521;BME280;58442;52.716;23.560;2022-12-13T03:44:06;100199.21;;;-1.20;76.11
70521;BME280;58442;52.716;23.560;2022-12-13T03:46:08;100200.59;;;-1.23;76.09
70521;BME280;58442;52.716;23.560;2022-12-13T03:48:09;100206.18;;;-1.24;76.09
70521;BME280;58442;52.716;23.560;2022-12-13T03:50:15;100212.08;;;-1.27;76.03
70521;BME280;58442;52.716;23.560;2022-12-13T03:52:16;100216.11;;;-1.30;76.00
70521;BME280;58442;52.716;23.560;2022-12-13T03:54:17;100206.80;;;-1.32;76.01
70521;BME280;58442;52.716;23.560;2022-12-13T03:56:18;100212.69;;;-1.35;75.95
70521;BME280;58442;52.716;23.560;2022-12-13T03:58:19;100214.83;;;-1.38;75.87
70521;BME280;58442;52.716;23.560;2022-12-13T04:00:20;100213.82;;;-1.42;75.85
70521;BME280;58442;52.716;23.560;2022-12-13T04:02:21;100217.03;;;-1.45;75.88
70521;BME280;58442;52.716;23.560;2022-12-13T04:04:24;100224.79;;;-1.48;75.86
70521;BME280;58442;52.716;23.560;2022-12-13T04:06:25;100220.30;;;-1.53;75.81
70521;BME280;58442;52.716;23.560;2022-12-13T04:08:26;100228.57;;;-1.54;75.86
70521;BME280;58442;52.716;23.560;2022-12-13T04:10:27;100219.79;;;-1.55;75.77
70521;BME280;58442;52.716;23.560;2022-12-13T04:12:28;100226.48;;;-1.57;75.69
70521;BME280;58442;52.716;23.560;2022-12-13T04:14:41;100231.84;;;-1.62;75.70
70521;BME280;58442;52.716;23.560;2022-12-13T04:16:42;100237.46;;;-1.64;75.70
70521;BME280;58442;52.716;23.560;2022-12-13T04:18:46;100229.49;;;-1.69;75.67
70521;BME280;58442;52.716;23.560;2022-12-13T04:20:47;100230.03;;;-1.72;75.72
70521;BME280;58442;52.716;23.560;2022-12-13T04:22:48;100238.02;;;-1.72;75.70
70521;BME280;58442;52.716;23.560;2022-12-13T04:24:49;100230.60;;;-1.75;75.67
70521;BME280;58442;52.716;23.560;2022-12-13T04:26:50;100239.41;;;-1.80;75.60
70521;BME280;58442;52.716;23.560;2022-12-13T04:28:51;100239.19;;;-1.83;75.64
70521;BME280;58442;52.716;23.560;2022-12-13T04:30:52;100241.59;;;-1.87;75.67
70521;BME280;58442;52.716;23.560;2022-12-13T04:32:56;100239.49;;;-1.90;75.70
70521;BME280;58442;52.716;23.560;2022-12-13T04:34:57;100247.99;;;-1.88;75.74
70521;BME280;58442;52.716;23.560;2022-12-13T04:36:58;100241.88;;;-1.88;75.65
70521;BME280;58442;52.716;23.560;2022-12-13T04:39:03;100252.80;;;-1.90;75.64
70521;BME280;58442;52.716;23.560;2022-12-13T04:41:16;100253.88;;;-1.91;75.56
70521;BME280;58442;52.716;23.560;2022-12-13T04:43:17;100249.09;;;-1.94;75.52
70521;BME280;58442;52.716;23.560;2022-12-13T04:45:20;100254.98;;;-1.97;75.59
70521;BME280;58442;52.716;23.560;2022-12-13T04:47:22;100260.59;;;-1.99;75.67
70521;BME280;58442;52.716;23.560;2022-12-13T04:49:26;100261.63;;;-2.00;75.56
70521;BME280;58442;52.716;23.560;2022-12-13T04:51:27;100265.38;;;-2.01;75.57
70521;BME280;58442;52.716;23.560;2022-12-13T04:53:29;100261.41;;;-2.03;75.46
70521;BME280;58442;52.716;23.560;2022-12-13T04:55:30;100265.42;;;-2.06;75.52
70521;BME280;58442;52.716;23.560;2022-12-13T04:57:41;100267.27;;;-2.06;75.48
70521;BME280;58442;52.716;23.560;2022-12-13T04:59:42;100264.09;;;-2.08;75.48
70521;BME280;58442;52.716;23.560;2022-12-13T05:01:46;100268.11;;;-2.11;75.52
70521;BME280;58442;52.716;23.560;2022-12-13T05:03:47;100276.09;;;-2.11;75.58
70521;BME280;58442;52.716;23.560;2022-12-13T05:05:56;100272.63;;;-2.11;75.51
70521;BME280;58442;52.716;23.560;2022-12-13T05:07:57;100277.41;;;-2.13;75.47
70521;BME280;58442;52.716;23.560;2022-12-13T05:09:58;100274.23;;;-2.15;75.54
70521;BME280;58442;52.716;23.560;2022-12-13T05:11:59;100263.31;;;-2.14;75.56
70521;BME280;58442;52.716;23.560;2022-12-13T05:14:00;100271.05;;;-2.12;75.43
70521;BME280;58442;52.716;23.560;2022-12-13T05:16:04;100266.77;;;-2.13;75.38
70521;BME280;58442;52.716;23.560;2022-12-13T05:18:06;100275.03;;;-2.15;75.40
70521;BME280;58442;52.716;23.560;2022-12-13T05:20:08;100275.32;;;-2.16;75.41
70521;BME280;58442;52.716;23.560;2022-12-13T05:22:09;100281.71;;;-2.17;75.41
70521;BME280;58442;52.716;23.560;2022-12-13T05:24:17;100282.24;;;-2.21;75.51
70521;BME280;58442;52.716;23.560;2022-12-13T05:26:18;100286.77;;;-2.21;75.57
70521;BME280;58442;52.716;23.560;2022-12-13T05:28:21;100290.52;;;-2.22;75.63
70521;BME280;58442;52.716;23.560;2022-12-13T05:30:27;100284.39;;;-2.23;75.76
70521;BME280;58442;52.716;23.560;2022-12-13T05:32:31;100292.10;;;-2.21;75.73
70521;BME280;58442;52.716;23.560;2022-12-13T05:34:33;100301.42;;;-2.18;75.76
70521;BME280;58442;52.716;23.560;2022-12-13T05:36:36;100295.82;;;-2.17;75.67
70521;BME280;58442;52.716;23.560;2022-12-13T05:38:37;100300.34;;;-2.17;75.64
70521;BME280;58442;52.716;23.560;2022-12-13T05:40:38;100298.48;;;-2.17;75.67
70521;BME280;58442;52.716;23.560;2022-12-13T05:42:39;100300.85;;;-2.15;75.72
70521;BME280;58442;52.716;23.560;2022-12-13T05:44:40;100308.31;;;-2.12;75.57
70521;BME280;58442;52.716;23.560;2022-12-13T05:46:41;100304.04;;;-2.13;75.62
70521;BME280;58442;52.716;23.560;2022-12-13T05:48:42;100299.79;;;-2.14;75.62
70521;BME280;58442;52.716;23.560;2022-12-13T05:50:45;100302.16;;;-2.13;75.64
70521;BME280;58442;52.716;23.560;2022-12-13T05:52:46;100308.31;;;-2.12;75.65
70521;BME280;58442;52.716;23.560;2022-12-13T05:54:47;100316.30;;;-2.12;75.64
70521;BME280;58442;52.716;23.560;2022-12-13T05:56:48;100315.47;;;-2.13;75.70
70521;BME280;58442;52.716;23.560;2022-12-13T05:58:49;100319.48;;;-2.10;75.70
70521;BME280;58442;52.716;23.560;2022-12-13T06:00:51;100317.34;;;-2.08;75.68
70521;BME280;58442;52.716;23.560;2022-12-13T06:02:52;100331.16;;;-2.06;75.67
70521;BME280;58442;52.716;23.560;2022-12-13T06:04:55;100330.12;;;-2.05;75.64
70521;BME280;58442;52.716;23.560;2022-12-13T06:06:56;100325.59;;;-2.05;75.65
70521;BME280;58442;52.716;23.560;2022-12-13T06:08:58;100326.89;;;-2.02;75.64
70521;BME280;58442;52.716;23.560;2022-12-13T06:11:01;100324.23;;;-2.02;75.61
70521;BME280;58442;52.716;23.560;2022-12-13T06:13:10;100338.34;;;-2.02;75.62
70521;BME280;58442;52.716;23.560;2022-12-13T06:15:11;100333.80;;;-2.01;75.58
70521;BME280;58442;52.716;23.560;2022-12-13T06:17:12;100333.80;;;-2.01;75.56
70521;BME280;58442;52.716;23.560;2022-12-13T06:19:13;100342.59;;;-2.01;75.57
70521;BME280;58442;52.716;23.560;2022-12-13T06:21:14;100339.64;;;-1.99;75.51
70521;BME280;58442;52.716;23.560;2022-12-13T06:23:15;100339.64;;;-1.99;75.50
70521;BME280;58442;52.716;23.560;2022-12-13T06:25:16;100351.13;;;-1.99;75.49
70521;BME280;58442;52.716;23.560;2022-12-13T06:27:20;100347.10;;;-1.96;75.44
70521;BME280;58442;52.716;23.560;2022-12-13T06:29:22;100357.76;;;-1.96;75.37
70521;BME280;58442;52.716;23.560;2022-12-13T06:31:23;100357.23;;;-1.98;75.40
70521;BME280;58442;52.716;23.560;2022-12-13T06:33:25;100362.29;;;-1.97;75.47
70521;BME280;58442;52.716;23.560;2022-12-13T06:35:35;100358.55;;;-1.96;75.37
70521;BME280;58442;52.716;23.560;2022-12-13T06:37:36;100362.29;;;-1.97;75.30
70521;BME280;58442;52.716;23.560;2022-12-13T06:39:37;100371.06;;;-1.96;75.36
70521;BME280;58442;52.716;23.560;2022-12-13T06:41:39;100374.52;;;-1.96;75.40
70521;BME280;58442;52.716;23.560;2022-12-13T06:43:50;100375.32;;;-1.95;75.42
70521;BME280;58442;52.716;23.560;2022-12-13T06:45:51;100378.78;;;-1.95;75.37
70521;BME280;58442;52.716;23.560;2022-12-13T06:47:52;100379.29;;;-1.93;75.32
70521;BME280;58442;52.716;23.560;2022-12-13T06:49:53;100389.15;;;-1.93;75.31
70521;BME280;58442;52.716;23.560;2022-12-13T06:51:54;100387.56;;;-1.94;75.29
70521;BME280;58442;52.716;23.560;2022-12-13T06:53:55;100391.30;;;-1.95;75.28
70521;BME280;58442;52.716;23.560;2022-12-13T06:56:08;100402.74;;;-1.95;75.37
70521;BME280;58442;52.716;23.560;2022-12-13T06:58:09;100400.07;;;-1.95;75.46
70521;BME280;58442;52.716;23.560;2022-12-13T07:00:21;100399.80;;;-1.93;75.24
70521;BME280;58442;52.716;23.560;2022-12-13T07:02:22;100414.19;;;-1.94;75.23
70521;BME280;58442;52.716;23.560;2022-12-13T07:04:23;100411.02;;;-1.96;75.06
70521;BME280;58442;52.716;23.560;2022-12-13T07:06:25;100419.52;;;-1.94;75.20
70521;BME280;58442;52.716;23.560;2022-12-13T07:08:36;100417.13;;;-1.96;75.09
70521;BME280;58442;52.716;23.560;2022-12-13T07:10:38;100421.14;;;-1.98;75.12
70521;BME280;58442;52.716;23.560;2022-12-13T07:12:40;100422.20;;;-1.99;75.11
70521;BME280;58442;52.716;23.560;2022-12-13T07:14:41;100421.66;;;-2.01;75.05
70521;BME280;58442;52.716;23.560;2022-12-13T07:16:51;100425.69;;;-2.04;75.04
70521;BME280;58442;52.716;23.560;2022-12-13T07:18:57;100432.88;;;-2.04;75.03
70521;BME280;58442;52.716;23.560;2022-12-13T07:20:58;100437.13;;;-2.03;74.98
70521;BME280;58442;52.716;23.560;2022-12-13T07:22:59;100447.50;;;-2.02;74.94
70521;BME280;58442;52.716;23.560;2022-12-13T07:25:07;100437.13;;;-2.03;74.84
70521;BME280;58442;52.716;23.560;2022-12-13T07:27:09;100447.77;;;-2.03;74.85
70521;BME280;58442;52.716;23.560;2022-12-13T07:29:10;100448.56;;;-2.03;74.85
70521;BME280;58442;52.716;23.560;2022-12-13T07:31:11;100461.89;;;-2.03;74.85
70521;BME280;58442;52.716;23.560;2022-12-13T07:33:21;100450.68;;;-2.00;74.87
70521;BME280;58442;52.716;23.560;2022-12-13T07:35:22;100456.55;;;-1.98;74.79
70521;BME280;58442;52.716;23.560;2022-12-13T07:37:24;100464.78;;;-1.94;74.80
70521;BME280;58442;52.716;23.560;2022-12-13T07:39:25;100458.94;;;-1.91;74.75
70521;BME280;58442;52.716;23.560;2022-12-13T07:41:36;100470.34;;;-1.85;74.68
70521;BME280;58442;52.716;23.560;2022-12-13T07:43:38;100467.43;;;-1.84;74.56
70521;BME280;58442;52.716;23.560;2022-12-13T07:45:39;100472.20;;;-1.81;74.56
70521;BME280;58442;52.716;23.560;2022-12-13T07:47:40;100469.52;;;-1.76;74.53
70521;BME280;58442;52.716;23.560;2022-12-13T07:49:51;100472.72;;;-1.74;74.46
70521;BME280;58442;52.716;23.560;2022-12-13T07:51:52;100478.30;;;-1.70;74.32
70521;BME280;58442;52.716;23.560;2022-12-13T07:53:53;100482.80;;;-1.66;74.24
70521;BME280;58442;52.716;23.560;2022-12-13T07:55:55;100486.54;;;-1.61;74.17
70521;BME280;58442;52.716;23.560;2022-12-13T07:58:02;100489.43;;;-1.58;74.08
70521;BME280;58442;52.716;23.560;2022-12-13T08:00:04;100484.38;;;-1.54;74.03
70521;BME280;58442;52.716;23.560;2022-12-13T08:02:11;100484.36;;;-1.49;73.96
70521;BME280;58442;52.716;23.560;2022-12-13T08:04:12;100487.54;;;-1.47;73.81
70521;BME280;58442;52.716;23.560;2022-12-13T08:06:14;100493.38;;;-1.45;73.70
70521;BME280;58442;52.716;23.560;2022-12-13T08:08:15;100488.34;;;-1.47;73.63
70521;BME280;58442;52.716;23.560;2022-12-13T08:10:17;100491.30;;;-1.53;73.65
70521;BME280;58442;52.716;23.560;2022-12-13T08:12:23;100490.50;;;-1.59;73.58
70521;BME280;58442;52.716;23.560;2022-12-13T08:14:26;100503.08;;;-1.64;73.66
70521;BME280;58442;52.716;23.560;2022-12-13T08:16:27;100502.02;;;-1.69;73.69
70521;BME280;58442;52.716;23.560;2022-12-13T08:18:29;100508.69;;;-1.71;73.77
70521;BME280;58442;52.716;23.560;2022-12-13T08:20:38;100510.00;;;-1.74;73.80
70521;BME280;58442;52.716;23.560;2022-12-13T08:22:39;100509.21;;;-1.74;73.71
70521;BME280;58442;52.716;23.560;2022-12-13T08:24:40;100505.23;;;-1.77;73.70
70521;BME280;58442;52.716;23.560;2022-12-13T08:26:41;100510.02;;;-1.79;73.68
70521;BME280;58442;52.716;23.560;2022-12-13T08:28:42;100507.91;;;-1.82;73.72
70521;BME280;58442;52.716;23.560;2022-12-13T08:30:43;100520.43;;;-1.82;73.68
70521;BME280;58442;52.716;23.560;2022-12-13T08:32:44;100515.37;;;-1.84;73.73
70521;BME280;58442;52.716;23.560;2022-12-13T08:34:48;100515.63;;;-1.85;73.70
70521;BME280;58442;52.716;23.560;2022-12-13T08:36:49;100517.48;;;-1.86;73.75
70521;BME280;58442;52.716;23.560;2022-12-13T08:38:54;100528.14;;;-1.86;73.70
70521;BME280;58442;52.716;23.560;2022-12-13T08:40:57;100531.60;;;-1.85;73.80
70521;BME280;58442;52.716;23.560;2022-12-13T08:43:03;100526.03;;;-1.84;73.85
70521;BME280;58442;52.716;23.560;2022-12-13T08:45:05;100537.20;;;-1.82;73.80
70521;BME280;58442;52.716;23.560;2022-12-13T08:47:07;100532.39;;;-1.80;73.77
70521;BME280;58442;52.716;23.560;2022-12-13T08:49:10;100540.94;;;-1.78;73.75
70521;BME280;58442;52.716;23.560;2022-12-13T08:51:18;100544.64;;;-1.74;73.75
70521;BME280;58442;52.716;23.560;2022-12-13T08:53:24;100543.05;;;-1.70;73.64
70521;BME280;58442;52.716;23.560;2022-12-13T08:55:26;100548.09;;;-1.68;73.59
70521;BME280;58442;52.716;23.560;2022-12-13T08:57:27;100539.55;;;-1.65;73.62
70521;BME280;58442;52.716;23.560;2022-12-13T08:59:33;100544.63;;;-1.63;73.58
70521;BME280;58442;52.716;23.560;2022-12-13T09:01:34;100552.86;;;-1.60;73.57
70521;BME280;58442;52.716;23.560;2022-12-13T09:03:36;100542.73;;;-1.58;73.55
70521;BME280;58442;52.716;23.560;2022-12-13T09:05:37;100540.61;;;-1.56;73.51
70521;BME280;58442;52.716;23.560;2022-12-13T09:07:49;100548.84;;;-1.52;73.48
70521;BME280;58442;52.716;23.560;2022-12-13T09:09:54;100548.31;;;-1.49;73.36
70521;BME280;58442;52.716;23.560;2022-12-13T09:11:55;100546.97;;;-1.47;73.32
70521;BME280;58442;52.716;23.560;2022-12-13T09:13:56;100550.95;;;-1.44;73.30
70521;BME280;58442;52.716;23.560;2022-12-13T09:16:09;100551.77;;;-1.44;73.29
70521;BME280;58442;52.716;23.560;2022-12-13T09:18:11;100549.63;;;-1.42;73.26
70521;BME280;58442;52.716;23.560;2022-12-13T09:20:12;100555.98;;;-1.38;73.21
70521;BME280;58442;52.716;23.560;2022-12-13T09:22:13;100547.98;;;-1.32;73.14
70521;BME280;58442;52.716;23.560;2022-12-13T09:24:19;100555.45;;;-1.29;72.99
70521;BME280;58442;52.716;23.560;2022-12-13T09:26:20;100557.84;;;-1.28;72.90
70521;BME280;58442;52.716;23.560;2022-12-13T09:28:22;100560.51;;;-1.28;72.86
70521;BME280;58442;52.716;23.560;2022-12-13T09:31:15;100573.28;;;-1.25;72.75
70521;BME280;58442;52.716;23.560;2022-12-13T09:33:17;100574.07;;;-1.24;72.70
70521;BME280;58442;52.716;23.560;2022-12-13T09:35:18;100567.69;;;-1.23;72.75
70521;BME280;58442;52.716;23.560;2022-12-13T09:37:21;100565.82;;;-1.23;72.80
70521;BME280;58442;52.716;23.560;2022-12-13T09:39:22;100567.93;;;-1.20;72.78
70521;BME280;58442;52.716;23.560;2022-12-13T09:41:33;100573.25;;;-1.15;72.76
70521;BME280;58442;52.716;23.560;2022-12-13T09:43:36;100576.95;;;-1.11;72.65
70521;BME280;58442;52.716;23.560;2022-12-13T09:45:39;100574.03;;;-1.09;72.60
70521;BME280;58442;52.716;23.560;2022-12-13T09:47:46;100575.34;;;-1.06;72.52
70521;BME280;58442;52.716;23.560;2022-12-13T09:49:48;100574.26;;;-1.05;72.50
70521;BME280;58442;52.716;23.560;2022-12-13T09:51:53;100580.12;;;-1.03;72.48
70521;BME280;58442;52.716;23.560;2022-12-13T09:53:55;100585.43;;;-0.98;72.48
70521;BME280;58442;52.716;23.560;2022-12-13T09:55:56;100584.90;;;-0.95;72.43
70521;BME280;58442;52.716;23.560;2022-12-13T09:58:00;100585.93;;;-0.91;72.33
70521;BME280;58442;52.716;23.560;2022-12-13T10:00:06;100586.73;;;-0.91;72.22
70521;BME280;58442;52.716;23.560;2022-12-13T10:02:25;100584.61;;;-0.89;72.19
70521;BME280;58442;52.716;23.560;2022-12-13T10:04:29;100591.25;;;-0.86;72.18
70521;BME280;58442;52.716;23.560;2022-12-13T10:06:31;100582.44;;;-0.81;72.10
70521;BME280;58442;52.716;23.560;2022-12-13T10:08:39;100585.85;;;-0.76;72.09
70521;BME280;58442;52.716;23.560;2022-12-13T10:10:42;100585.83;;;-0.71;71.99
70521;BME280;58442;52.716;23.560;2022-12-13T10:12:50;100586.34;;;-0.69;71.90
70521;BME280;58442;52.716;23.560;2022-12-13T10:14:57;100589.55;;;-0.67;71.92
70521;BME280;58442;52.716;23.560;2022-12-13T10:17:02;100592.22;;;-0.67;71.89
70521;BME280;58442;52.716;23.560;2022-12-13T10:23:32;100586.88;;;-0.67;71.95
70521;BME280;58442;52.716;23.560;2022-12-13T10:27:47;100580.19;;;-0.64;71.88
70521;BME280;58442;52.716;23.560;2022-12-13T10:29:58;100593.79;;;-0.61;71.77
70521;BME280;58442;52.716;23.560;2022-12-13T10:32:10;100588.68;;;-0.57;71.73
70521;BME280;58442;52.716;23.560;2022-12-13T10:36:36;100575.52;;;-0.43;71.59
70521;BME280;58442;52.716;23.560;2022-12-13T10:38:44;100583.19;;;-0.32;71.33
70521;BME280;58442;52.716;23.560;2022-12-13T10:40:46;100588.44;;;-0.21;71.26
70521;BME280;58442;52.716;23.560;2022-12-13T10:45:12;100590.36;;;0.07;70.94
70521;BME280;58442;52.716;23.560;2022-12-13T10:47:22;100586.98;;;0.25;70.62
70521;BME280;58442;52.716;23.560;2022-12-13T10:49:39;100587.34;;;0.43;70.35
70521;BME280;58442;52.716;23.560;2022-12-13T10:51:56;100587.23;;;0.53;70.21
70521;BME280;58442;52.716;23.560;2022-12-13T10:53:59;100591.95;;;0.61;69.98
70521;BME280;58442;52.716;23.560;2022-12-13T10:56:01;100598.05;;;0.67;69.83
70521;BME280;58442;52.716;23.560;2022-12-13T10:58:04;100588.09;;;0.72;69.71
70521;BME280;58442;52.716;23.560;2022-12-13T11:02:36;100595.19;;;0.82;69.51
70521;BME280;58442;52.716;23.560;2022-12-13T11:04:38;100590.09;;;0.86;69.30
70521;BME280;58442;52.716;23.560;2022-12-13T11:06:42;100590.30;;;0.89;69.00
70521;BME280;58442;52.716;23.560;2022-12-13T11:08:43;100585.98;;;0.93;69.20
70521;BME280;58442;52.716;23.560;2022-12-13T11:15:32;100589.84;;;1.06;68.75
70521;BME280;58442;52.716;23.560;2022-12-13T11:17:37;100588.46;;;1.08;68.57
70521;BME280;58442;52.716;23.560;2022-12-13T11:19:46;100591.66;;;1.11;68.57
70521;BME280;58442;52.716;23.560;2022-12-13T11:21:49;100589.19;;;1.14;68.29
70521;BME280;58442;52.716;23.560;2022-12-13T11:24:00;100595.84;;;1.17;68.39
70521;BME280;58442;52.716;23.560;2022-12-13T11:26:19;100602.22;;;1.21;68.16
70521;BME280;58442;52.716;23.560;2022-12-13T11:28:46;100598.16;;;1.23;68.04
70521;BME280;58442;52.716;23.560;2022-12-13T11:31:02;100597.90;;;1.25;68.07
70521;BME280;58442;52.716;23.560;2022-12-13T11:35:47;100603.69;;;1.32;67.88
70521;BME280;58442;52.716;23.560;2022-12-13T11:40:28;100593.42;;;1.39;67.63
70521;BME280;58442;52.716;23.560;2022-12-13T11:42:47;100592.34;;;1.40;67.51
70521;BME280;58442;52.716;23.560;2022-12-13T11:44:57;100588.36;;;1.38;67.46
70521;BME280;58442;52.716;23.560;2022-12-13T11:47:00;100588.91;;;1.34;67.39